sensor_id;sensor_type;location;lat;lon;timestamp;P1;durP1;ratioP1;P2;durP2;ratioP2
13439;SDS011;6792;57.698;11.946;2023-02-23T00:00:42;1.33;;;1.03;;
13439;SDS011;6792;57.698;11.946;2023-02-23T00:03:12;2.00;;;1.33;;
13439;SDS011;6792;57.698;11.946;2023-02-23T00:05:41;1.90;;;1.13;;
13439;SDS011;6792;57.698;11.946;2023-02-23T00:08:10;3.63;;;1.10;;
13439;SDS011;6792;57.698;11.946;2023-02-23T00:10:41;5.33;;;1.10;;
13439;SDS011;6792;57.698;11.946;2023-02-23T00:13:10;1.53;;;1.20;;
13439;SDS011;6792;57.698;11.946;2023-02-23T00:15:39;4.60;;;1.40;;
13439;SDS011;6792;57.698;11.946;2023-02-23T00:18:08;2.47;;;1.27;;
13439;SDS011;6792;57.698;11.946;2023-02-23T00:20:38;2.90;;;1.37;;
13439;SDS011;6792;57.698;11.946;2023-02-23T00:23:09;2.27;;;1.47;;
13439;SDS011;6792;57.698;11.946;2023-02-23T00:25:38;3.87;;;1.47;;
13439;SDS011;6792;57.698;11.946;2023-02-23T00:28:09;2.07;;;1.50;;
13439;SDS011;6792;57.698;11.946;2023-02-23T00:30:39;2.53;;;1.40;;
13439;SDS011;6792;57.698;11.946;2023-02-23T00:33:10;3.50;;;1.00;;
13439;SDS011;6792;57.698;11.946;2023-02-23T00:35:39;3.73;;;1.60;;
13439;SDS011;6792;57.698;11.946;2023-02-23T00:38:08;7.67;;;2.10;;
13439;SDS011;6792;57.698;11.946;2023-02-23T00:40:39;3.83;;;1.60;;
13439;SDS011;6792;57.698;11.946;2023-02-23T00:43:08;3.57;;;1.50;;
13439;SDS011;6792;57.698;11.946;2023-02-23T00:45:38;2.93;;;1.57;;
13439;SDS011;6792;57.698;11.946;2023-02-23T00:48:07;3.60;;;1.50;;
13439;SDS011;6792;57.698;11.946;2023-02-23T00:50:36;1.67;;;1.10;;
13439;SDS011;6792;57.698;11.946;2023-02-23T00:53:06;3.20;;;1.60;;
13439;SDS011;6792;57.698;11.946;2023-02-23T00:55:36;3.40;;;1.63;;
13439;SDS011;6792;57.698;11.946;2023-02-23T00:58:08;3.70;;;1.40;;
13439;SDS011;6792;57.698;11.946;2023-02-23T01:00:39;5.17;;;1.47;;
13439;SDS011;6792;57.698;11.946;2023-02-23T01:03:08;2.53;;;1.63;;
13439;SDS011;6792;57.698;11.946;2023-02-23T01:05:37;2.77;;;1.50;;
13439;SDS011;6792;57.698;11.946;2023-02-23T01:08:06;4.80;;;1.80;;
13439;SDS011;6792;57.698;11.946;2023-02-23T01:10:39;2.43;;;1.57;;
13439;SDS011;6792;57.698;11.946;2023-02-23T01:13:09;3.87;;;1.93;;
13439;SDS011;6792;57.698;11.946;2023-02-23T01:15:40;2.93;;;1.50;;
13439;SDS011;6792;57.698;11.946;2023-02-23T01:18:10;2.43;;;1.63;;
13439;SDS011;6792;57.698;11.946;2023-02-23T01:20:42;3.93;;;2.03;;
13439;SDS011;6792;57.698;11.946;2023-02-23T01:23:12;4.43;;;1.47;;
13439;SDS011;6792;57.698;11.946;2023-02-23T01:25:42;3.10;;;1.80;;
13439;SDS011;6792;57.698;11.946;2023-02-23T01:28:13;2.60;;;1.83;;
13439;SDS011;6792;57.698;11.946;2023-02-23T01:30:42;3.13;;;2.10;;
13439;SDS011;6792;57.698;11.946;2023-02-23T01:33:11;2.90;;;1.83;;
13439;SDS011;6792;57.698;11.946;2023-02-23T01:35:41;3.47;;;1.73;;
13439;SDS011;6792;57.698;11.946;2023-02-23T01:38:10;3.77;;;1.70;;
13439;SDS011;6792;57.698;11.946;2023-02-23T01:40:42;2.80;;;1.93;;
13439;SDS011;6792;57.698;11.946;2023-02-23T01:43:13;4.10;;;1.90;;
13439;SDS011;6792;57.698;11.946;2023-02-23T01:45:44;3.13;;;1.70;;
13439;SDS011;6792;57.698;11.946;2023-02-23T01:48:14;4.70;;;2.00;;
13439;SDS011;6792;57.698;11.946;2023-02-23T01:50:47;3.27;;;1.87;;
13439;SDS011;6792;57.698;11.946;2023-02-23T01:53:18;6.70;;;2.00;;
13439;SDS011;6792;57.698;11.946;2023-02-23T01:55:48;3.63;;;1.83;;
13439;SDS011;6792;57.698;11.946;2023-02-23T01:58:21;3.67;;;1.80;;
13439;SDS011;6792;57.698;11.946;2023-02-23T02:00:53;5.93;;;2.27;;
13439;SDS011;6792;57.698;11.946;2023-02-23T02:03:26;4.87;;;1.83;;
13439;SDS011;6792;57.698;11.946;2023-02-23T02:05:58;6.17;;;2.50;;
13439;SDS011;6792;57.698;11.946;2023-02-23T02:08:29;3.20;;;2.10;;
13439;SDS011;6792;57.698;11.946;2023-02-23T02:11:02;4.30;;;2.47;;
13439;SDS011;6792;57.698;11.946;2023-02-23T02:13:33;3.30;;;2.13;;
13439;SDS011;6792;57.698;11.946;2023-02-23T02:19:26;4.37;;;2.20;;
13439;SDS011;6792;57.698;11.946;2023-02-23T02:25:30;3.70;;;2.13;;
13439;SDS011;6792;57.698;11.946;2023-02-23T02:34:38;3.57;;;2.03;;
13439;SDS011;6792;57.698;11.946;2023-02-23T02:37:38;8.57;;;2.30;;
13439;SDS011;6792;57.698;11.946;2023-02-23T02:40:35;4.20;;;2.40;;
13439;SDS011;6792;57.698;11.946;2023-02-23T02:43:10;3.73;;;2.37;;
13439;SDS011;6792;57.698;11.946;2023-02-23T02:45:43;4.43;;;2.13;;
13439;SDS011;6792;57.698;11.946;2023-02-23T02:48:17;4.83;;;2.13;;
13439;SDS011;6792;57.698;11.946;2023-02-23T02:50:53;3.93;;;2.30;;
13439;SDS011;6792;57.698;11.946;2023-02-23T02:53:27;4.80;;;2.67;;
13439;SDS011;6792;57.698;11.946;2023-02-23T02:55:58;2.83;;;2.23;;
13439;SDS011;6792;57.698;11.946;2023-02-23T02:58:30;6.10;;;2.17;;
13439;SDS011;6792;57.698;11.946;2023-02-23T03:01:05;7.47;;;2.60;;
13439;SDS011;6792;57.698;11.946;2023-02-23T03:03:53;3.80;;;2.37;;
13439;SDS011;6792;57.698;11.946;2023-02-23T03:06:44;6.33;;;2.37;;
13439;SDS011;6792;57.698;11.946;2023-02-23T03:09:35;3.93;;;2.50;;
13439;SDS011;6792;57.698;11.946;2023-02-23T03:12:27;4.17;;;2.40;;
13439;SDS011;6792;57.698;11.946;2023-02-23T03:15:21;3.03;;;2.10;;
13439;SDS011;6792;57.698;11.946;2023-02-23T03:18:20;4.20;;;2.40;;
13439;SDS011;6792;57.698;11.946;2023-02-23T03:21:13;6.50;;;2.57;;
13439;SDS011;6792;57.698;11.946;2023-02-23T03:24:03;5.63;;;2.63;;
13439;SDS011;6792;57.698;11.946;2023-02-23T03:26:54;3.10;;;2.20;;
13439;SDS011;6792;57.698;11.946;2023-02-23T03:29:44;6.87;;;2.73;;
13439;SDS011;6792;57.698;11.946;2023-02-23T03:32:34;5.80;;;2.30;;
13439;SDS011;6792;57.698;11.946;2023-02-23T03:35:24;4.63;;;2.20;;
13439;SDS011;6792;57.698;11.946;2023-02-23T03:38:16;3.23;;;2.10;;
13439;SDS011;6792;57.698;11.946;2023-02-23T03:41:05;6.20;;;2.63;;
13439;SDS011;6792;57.698;11.946;2023-02-23T03:43:55;6.60;;;2.70;;
13439;SDS011;6792;57.698;11.946;2023-02-23T03:46:45;4.27;;;2.03;;
13439;SDS011;6792;57.698;11.946;2023-02-23T03:49:35;4.27;;;2.57;;
13439;SDS011;6792;57.698;11.946;2023-02-23T03:52:24;6.07;;;2.57;;
13439;SDS011;6792;57.698;11.946;2023-02-23T03:55:14;4.53;;;2.77;;
13439;SDS011;6792;57.698;11.946;2023-02-23T03:58:04;4.33;;;2.27;;
13439;SDS011;6792;57.698;11.946;2023-02-23T04:00:53;6.20;;;2.60;;
13439;SDS011;6792;57.698;11.946;2023-02-23T04:03:42;7.17;;;2.67;;
13439;SDS011;6792;57.698;11.946;2023-02-23T04:06:34;5.07;;;2.93;;
13439;SDS011;6792;57.698;11.946;2023-02-23T04:09:24;4.27;;;2.67;;
13439;SDS011;6792;57.698;11.946;2023-02-23T04:12:12;4.43;;;2.60;;
13439;SDS011;6792;57.698;11.946;2023-02-23T04:15:03;4.60;;;2.60;;
13439;SDS011;6792;57.698;11.946;2023-02-23T04:17:32;7.10;;;2.70;;
13439;SDS011;6792;57.698;11.946;2023-02-23T04:20:02;7.53;;;3.20;;
13439;SDS011;6792;57.698;11.946;2023-02-23T04:22:32;4.30;;;2.70;;
13439;SDS011;6792;57.698;11.946;2023-02-23T04:25:01;4.53;;;3.13;;
13439;SDS011;6792;57.698;11.946;2023-02-23T04:27:33;3.63;;;2.67;;
13439;SDS011;6792;57.698;11.946;2023-02-23T04:30:03;7.20;;;3.10;;
13439;SDS011;6792;57.698;11.946;2023-02-23T04:32:36;5.17;;;2.67;;
13439;SDS011;6792;57.698;11.946;2023-02-23T04:35:06;5.60;;;2.93;;
13439;SDS011;6792;57.698;11.946;2023-02-23T04:37:36;6.03;;;3.10;;
13439;SDS011;6792;57.698;11.946;2023-02-23T04:40:06;8.87;;;3.43;;
13439;SDS011;6792;57.698;11.946;2023-02-23T04:42:37;4.97;;;2.90;;
13439;SDS011;6792;57.698;11.946;2023-02-23T04:45:08;5.70;;;3.33;;
13439;SDS011;6792;57.698;11.946;2023-02-23T04:47:38;8.23;;;3.40;;
13439;SDS011;6792;57.698;11.946;2023-02-23T04:50:08;6.47;;;3.07;;
13439;SDS011;6792;57.698;11.946;2023-02-23T04:52:38;8.80;;;3.30;;
13439;SDS011;6792;57.698;11.946;2023-02-23T04:55:11;10.07;;;3.67;;
13439;SDS011;6792;57.698;11.946;2023-02-23T04:57:41;8.10;;;3.43;;
13439;SDS011;6792;57.698;11.946;2023-02-23T05:00:14;5.60;;;2.97;;
13439;SDS011;6792;57.698;11.946;2023-02-23T05:02:45;6.77;;;3.80;;
13439;SDS011;6792;57.698;11.946;2023-02-23T05:05:14;5.87;;;3.23;;
13439;SDS011;6792;57.698;11.946;2023-02-23T05:07:43;10.17;;;3.90;;
13439;SDS011;6792;57.698;11.946;2023-02-23T05:10:12;5.63;;;3.17;;
13439;SDS011;6792;57.698;11.946;2023-02-23T05:12:44;6.57;;;3.33;;
13439;SDS011;6792;57.698;11.946;2023-02-23T05:15:13;7.07;;;3.27;;
13439;SDS011;6792;57.698;11.946;2023-02-23T05:17:42;7.10;;;3.73;;
13439;SDS011;6792;57.698;11.946;2023-02-23T05:20:12;7.73;;;3.80;;
13439;SDS011;6792;57.698;11.946;2023-02-23T05:22:41;9.80;;;4.13;;
13439;SDS011;6792;57.698;11.946;2023-02-23T05:25:10;8.30;;;3.80;;
13439;SDS011;6792;57.698;11.946;2023-02-23T05:27:40;5.43;;;3.63;;
13439;SDS011;6792;57.698;11.946;2023-02-23T05:30:10;8.17;;;3.83;;
13439;SDS011;6792;57.698;11.946;2023-02-23T05:32:39;9.10;;;4.00;;
13439;SDS011;6792;57.698;11.946;2023-02-23T05:35:10;10.93;;;3.80;;
13439;SDS011;6792;57.698;11.946;2023-02-23T05:37:41;9.13;;;4.10;;
13439;SDS011;6792;57.698;11.946;2023-02-23T05:40:12;8.23;;;4.00;;
13439;SDS011;6792;57.698;11.946;2023-02-23T05:42:41;8.30;;;4.47;;
13439;SDS011;6792;57.698;11.946;2023-02-23T05:45:10;11.50;;;4.57;;
13439;SDS011;6792;57.698;11.946;2023-02-23T05:47:40;6.63;;;4.33;;
13439;SDS011;6792;57.698;11.946;2023-02-23T05:50:11;8.00;;;4.47;;
13439;SDS011;6792;57.698;11.946;2023-02-23T05:52:40;10.80;;;4.60;;
13439;SDS011;6792;57.698;11.946;2023-02-23T05:55:10;8.00;;;4.50;;
13439;SDS011;6792;57.698;11.946;2023-02-23T05:57:42;11.60;;;5.00;;
13439;SDS011;6792;57.698;11.946;2023-02-23T06:00:12;11.77;;;5.10;;
13439;SDS011;6792;57.698;11.946;2023-02-23T06:02:43;8.93;;;4.60;;
13439;SDS011;6792;57.698;11.946;2023-02-23T06:05:12;10.30;;;4.87;;
13439;SDS011;6792;57.698;11.946;2023-02-23T06:07:42;14.50;;;5.07;;
13439;SDS011;6792;57.698;11.946;2023-02-23T06:10:11;12.43;;;5.47;;
13439;SDS011;6792;57.698;11.946;2023-02-23T06:12:50;10.63;;;5.00;;
13439;SDS011;6792;57.698;11.946;2023-02-23T06:15:19;16.17;;;5.50;;
13439;SDS011;6792;57.698;11.946;2023-02-23T06:17:48;15.63;;;5.80;;
13439;SDS011;6792;57.698;11.946;2023-02-23T06:20:21;9.47;;;5.33;;
13439;SDS011;6792;57.698;11.946;2023-02-23T06:22:50;12.30;;;5.17;;
13439;SDS011;6792;57.698;11.946;2023-02-23T06:25:20;12.97;;;5.90;;
13439;SDS011;6792;57.698;11.946;2023-02-23T06:27:49;14.27;;;5.80;;
13439;SDS011;6792;57.698;11.946;2023-02-23T06:30:19;15.47;;;6.63;;
13439;SDS011;6792;57.698;11.946;2023-02-23T06:32:49;13.73;;;6.40;;
13439;SDS011;6792;57.698;11.946;2023-02-23T06:35:18;13.57;;;6.17;;
13439;SDS011;6792;57.698;11.946;2023-02-23T06:37:47;10.43;;;6.10;;
13439;SDS011;6792;57.698;11.946;2023-02-23T06:40:17;14.73;;;6.20;;
13439;SDS011;6792;57.698;11.946;2023-02-23T06:42:46;13.97;;;5.87;;
13439;SDS011;6792;57.698;11.946;2023-02-23T06:45:15;20.13;;;5.33;;
13439;SDS011;6792;57.698;11.946;2023-02-23T06:47:45;14.70;;;6.23;;
13439;SDS011;6792;57.698;11.946;2023-02-23T06:50:14;11.73;;;5.77;;
13439;SDS011;6792;57.698;11.946;2023-02-23T06:52:44;12.70;;;5.30;;
13439;SDS011;6792;57.698;11.946;2023-02-23T06:55:14;14.57;;;6.37;;
13439;SDS011;6792;57.698;11.946;2023-02-23T06:57:43;12.63;;;5.50;;
13439;SDS011;6792;57.698;11.946;2023-02-23T07:00:15;13.27;;;5.53;;
13439;SDS011;6792;57.698;11.946;2023-02-23T07:02:45;10.10;;;5.30;;
13439;SDS011;6792;57.698;11.946;2023-02-23T07:05:14;12.40;;;6.00;;
13439;SDS011;6792;57.698;11.946;2023-02-23T07:07:43;12.50;;;5.40;;
13439;SDS011;6792;57.698;11.946;2023-02-23T07:10:13;17.90;;;6.47;;
13439;SDS011;6792;57.698;11.946;2023-02-23T07:12:42;15.10;;;5.70;;
13439;SDS011;6792;57.698;11.946;2023-02-23T07:15:11;11.37;;;5.60;;
13439;SDS011;6792;57.698;11.946;2023-02-23T07:17:42;12.30;;;6.77;;
13439;SDS011;6792;57.698;11.946;2023-02-23T07:20:13;12.23;;;6.20;;
13439;SDS011;6792;57.698;11.946;2023-02-23T07:22:42;11.07;;;6.23;;
13439;SDS011;6792;57.698;11.946;2023-02-23T07:25:11;13.40;;;6.13;;
13439;SDS011;6792;57.698;11.946;2023-02-23T07:27:41;12.47;;;6.10;;
13439;SDS011;6792;57.698;11.946;2023-02-23T07:30:12;12.30;;;5.87;;
13439;SDS011;6792;57.698;11.946;2023-02-23T07:32:43;11.87;;;5.17;;
13439;SDS011;6792;57.698;11.946;2023-02-23T07:35:12;11.97;;;6.10;;
13439;SDS011;6792;57.698;11.946;2023-02-23T07:37:44;14.87;;;6.27;;
13439;SDS011;6792;57.698;11.946;2023-02-23T07:40:14;12.00;;;6.40;;
13439;SDS011;6792;57.698;11.946;2023-02-23T07:42:45;12.07;;;6.20;;
13439;SDS011;6792;57.698;11.946;2023-02-23T07:45:14;15.77;;;6.50;;
13439;SDS011;6792;57.698;11.946;2023-02-23T07:47:44;14.40;;;6.50;;
13439;SDS011;6792;57.698;11.946;2023-02-23T07:50:13;14.30;;;6.40;;
13439;SDS011;6792;57.698;11.946;2023-02-23T07:52:42;13.03;;;6.13;;
13439;SDS011;6792;57.698;11.946;2023-02-23T07:55:11;12.53;;;5.60;;
13439;SDS011;6792;57.698;11.946;2023-02-23T07:57:40;18.60;;;6.80;;
13439;SDS011;6792;57.698;11.946;2023-02-23T08:00:10;15.63;;;5.90;;
13439;SDS011;6792;57.698;11.946;2023-02-23T08:02:43;16.07;;;6.67;;
13439;SDS011;6792;57.698;11.946;2023-02-23T08:05:14;12.27;;;6.90;;
13439;SDS011;6792;57.698;11.946;2023-02-23T08:07:43;14.03;;;6.43;;
13439;SDS011;6792;57.698;11.946;2023-02-23T08:10:13;12.63;;;6.23;;
13439;SDS011;6792;57.698;11.946;2023-02-23T08:12:42;9.57;;;5.77;;
13439;SDS011;6792;57.698;11.946;2023-02-23T08:15:11;14.77;;;6.03;;
13439;SDS011;6792;57.698;11.946;2023-02-23T08:17:40;15.73;;;6.60;;
13439;SDS011;6792;57.698;11.946;2023-02-23T08:20:10;11.63;;;6.33;;
13439;SDS011;6792;57.698;11.946;2023-02-23T08:22:39;12.63;;;6.20;;
13439;SDS011;6792;57.698;11.946;2023-02-23T08:25:09;13.13;;;6.53;;
13439;SDS011;6792;57.698;11.946;2023-02-23T08:27:38;12.40;;;5.97;;
13439;SDS011;6792;57.698;11.946;2023-02-23T08:30:08;12.33;;;5.77;;
13439;SDS011;6792;57.698;11.946;2023-02-23T08:32:39;10.57;;;6.03;;
13439;SDS011;6792;57.698;11.946;2023-02-23T08:35:09;8.03;;;4.97;;
13439;SDS011;6792;57.698;11.946;2023-02-23T08:37:38;12.57;;;6.37;;
13439;SDS011;6792;57.698;11.946;2023-02-23T08:40:09;13.97;;;6.13;;
13439;SDS011;6792;57.698;11.946;2023-02-23T08:42:40;11.77;;;5.80;;
13439;SDS011;6792;57.698;11.946;2023-02-23T08:45:10;12.23;;;5.93;;
13439;SDS011;6792;57.698;11.946;2023-02-23T08:47:41;15.17;;;6.77;;
13439;SDS011;6792;57.698;11.946;2023-02-23T08:50:11;13.57;;;6.50;;
13439;SDS011;6792;57.698;11.946;2023-02-23T08:52:41;10.37;;;5.37;;
13439;SDS011;6792;57.698;11.946;2023-02-23T08:55:10;9.90;;;5.10;;
13439;SDS011;6792;57.698;11.946;2023-02-23T08:57:41;11.67;;;6.20;;
13439;SDS011;6792;57.698;11.946;2023-02-23T09:00:11;11.03;;;5.40;;
13439;SDS011;6792;57.698;11.946;2023-02-23T09:02:42;15.20;;;6.27;;
13439;SDS011;6792;57.698;11.946;2023-02-23T09:05:13;11.77;;;5.53;;
13439;SDS011;6792;57.698;11.946;2023-02-23T09:07:43;11.63;;;5.50;;
13439;SDS011;6792;57.698;11.946;2023-02-23T09:10:13;14.63;;;6.27;;
13439;SDS011;6792;57.698;11.946;2023-02-23T09:12:45;7.40;;;5.23;;
13439;SDS011;6792;57.698;11.946;2023-02-23T09:15:14;10.57;;;5.60;;
13439;SDS011;6792;57.698;11.946;2023-02-23T09:17:46;13.07;;;5.80;;
13439;SDS011;6792;57.698;11.946;2023-02-23T09:20:15;14.70;;;6.47;;
13439;SDS011;6792;57.698;11.946;2023-02-23T09:22:45;10.77;;;6.40;;
13439;SDS011;6792;57.698;11.946;2023-02-23T09:25:14;9.70;;;5.37;;
13439;SDS011;6792;57.698;11.946;2023-02-23T09:27:46;14.73;;;6.33;;
13439;SDS011;6792;57.698;11.946;2023-02-23T09:30:15;13.80;;;7.00;;
13439;SDS011;6792;57.698;11.946;2023-02-23T09:32:46;10.03;;;5.47;;
13439;SDS011;6792;57.698;11.946;2023-02-23T09:35:18;14.27;;;7.00;;
13439;SDS011;6792;57.698;11.946;2023-02-23T09:37:48;12.60;;;6.30;;
13439;SDS011;6792;57.698;11.946;2023-02-23T09:40:20;11.73;;;6.67;;
13439;SDS011;6792;57.698;11.946;2023-02-23T09:42:57;11.80;;;6.33;;
13439;SDS011;6792;57.698;11.946;2023-02-23T09:45:32;18.27;;;8.40;;
13439;SDS011;6792;57.698;11.946;2023-02-23T09:48:08;18.63;;;7.43;;
13439;SDS011;6792;57.698;11.946;2023-02-23T09:50:42;15.47;;;8.00;;
13439;SDS011;6792;57.698;11.946;2023-02-23T09:53:29;15.47;;;7.93;;
13439;SDS011;6792;57.698;11.946;2023-02-23T09:56:06;16.60;;;8.53;;
13439;SDS011;6792;57.698;11.946;2023-02-23T09:58:39;18.10;;;8.10;;
13439;SDS011;6792;57.698;11.946;2023-02-23T10:01:21;24.37;;;8.53;;
13439;SDS011;6792;57.698;11.946;2023-02-23T10:04:02;26.87;;;9.60;;
13439;SDS011;6792;57.698;11.946;2023-02-23T10:06:33;19.43;;;8.70;;
13439;SDS011;6792;57.698;11.946;2023-02-23T10:09:05;21.23;;;8.27;;
13439;SDS011;6792;57.698;11.946;2023-02-23T10:11:39;23.73;;;9.30;;
13439;SDS011;6792;57.698;11.946;2023-02-23T10:14:16;13.67;;;8.00;;
13439;SDS011;6792;57.698;11.946;2023-02-23T10:16:52;18.93;;;9.00;;
13439;SDS011;6792;57.698;11.946;2023-02-23T10:19:27;22.53;;;9.67;;
13439;SDS011;6792;57.698;11.946;2023-02-23T10:22:00;20.57;;;8.97;;
13439;SDS011;6792;57.698;11.946;2023-02-23T10:24:33;23.67;;;9.53;;
13439;SDS011;6792;57.698;11.946;2023-02-23T10:27:06;21.00;;;9.60;;
13439;SDS011;6792;57.698;11.946;2023-02-23T10:29:38;23.50;;;9.10;;
13439;SDS011;6792;57.698;11.946;2023-02-23T10:32:13;22.83;;;9.80;;
13439;SDS011;6792;57.698;11.946;2023-02-23T10:34:45;23.27;;;9.93;;
13439;SDS011;6792;57.698;11.946;2023-02-23T10:37:17;22.30;;;9.70;;
13439;SDS011;6792;57.698;11.946;2023-02-23T10:39:47;26.70;;;10.07;;
13439;SDS011;6792;57.698;11.946;2023-02-23T10:42:18;24.97;;;10.67;;
13439;SDS011;6792;57.698;11.946;2023-02-23T10:44:49;25.97;;;9.00;;
13439;SDS011;6792;57.698;11.946;2023-02-23T10:47:18;27.30;;;10.27;;
13439;SDS011;6792;57.698;11.946;2023-02-23T10:49:51;20.60;;;9.73;;
13439;SDS011;6792;57.698;11.946;2023-02-23T10:52:22;23.97;;;9.00;;
13439;SDS011;6792;57.698;11.946;2023-02-23T10:54:57;26.80;;;10.47;;
13439;SDS011;6792;57.698;11.946;2023-02-23T10:57:29;31.10;;;11.87;;
13439;SDS011;6792;57.698;11.946;2023-02-23T11:00:05;26.90;;;10.20;;
13439;SDS011;6792;57.698;11.946;2023-02-23T11:02:58;30.10;;;10.43;;
13439;SDS011;6792;57.698;11.946;2023-02-23T11:05:31;25.03;;;10.90;;
13439;SDS011;6792;57.698;11.946;2023-02-23T11:08:16;31.33;;;10.60;;
13439;SDS011;6792;57.698;11.946;2023-02-23T11:10:55;26.50;;;11.47;;
13439;SDS011;6792;57.698;11.946;2023-02-23T11:13:26;32.97;;;10.30;;
13439;SDS011;6792;57.698;11.946;2023-02-23T11:15:58;37.03;;;11.90;;
13439;SDS011;6792;57.698;11.946;2023-02-23T11:18:29;32.40;;;11.80;;
13439;SDS011;6792;57.698;11.946;2023-02-23T11:20:59;24.10;;;9.97;;
13439;SDS011;6792;57.698;11.946;2023-02-23T11:23:28;34.03;;;11.80;;
13439;SDS011;6792;57.698;11.946;2023-02-23T11:26:01;31.83;;;12.33;;
13439;SDS011;6792;57.698;11.946;2023-02-23T11:28:32;25.20;;;10.43;;
13439;SDS011;6792;57.698;11.946;2023-02-23T11:31:12;27.07;;;11.93;;
13439;SDS011;6792;57.698;11.946;2023-02-23T11:33:41;28.30;;;11.40;;
13439;SDS011;6792;57.698;11.946;2023-02-23T11:36:14;29.47;;;11.10;;
13439;SDS011;6792;57.698;11.946;2023-02-23T11:38:45;39.03;;;12.90;;
13439;SDS011;6792;57.698;11.946;2023-02-23T11:41:18;30.70;;;11.23;;
13439;SDS011;6792;57.698;11.946;2023-02-23T11:43:49;32.30;;;12.07;;
13439;SDS011;6792;57.698;11.946;2023-02-23T11:46:21;24.77;;;10.63;;
13439;SDS011;6792;57.698;11.946;2023-02-23T11:48:51;27.10;;;11.03;;
13439;SDS011;6792;57.698;11.946;2023-02-23T11:51:23;30.57;;;11.30;;
13439;SDS011;6792;57.698;11.946;2023-02-23T11:53:55;22.77;;;9.03;;
13439;SDS011;6792;57.698;11.946;2023-02-23T11:56:25;29.37;;;11.10;;
13439;SDS011;6792;57.698;11.946;2023-02-23T11:58:57;24.43;;;9.10;;
13439;SDS011;6792;57.698;11.946;2023-02-23T12:01:39;24.00;;;9.73;;
13439;SDS011;6792;57.698;11.946;2023-02-23T12:04:21;26.60;;;9.17;;
13439;SDS011;6792;57.698;11.946;2023-02-23T12:07:19;26.93;;;9.17;;
13439;SDS011;6792;57.698;11.946;2023-02-23T12:09:51;17.57;;;7.37;;
13439;SDS011;6792;57.698;11.946;2023-02-23T12:12:22;17.30;;;7.43;;
13439;SDS011;6792;57.698;11.946;2023-02-23T12:14:54;16.73;;;7.20;;
13439;SDS011;6792;57.698;11.946;2023-02-23T12:17:26;15.53;;;6.90;;
13439;SDS011;6792;57.698;11.946;2023-02-23T12:19:58;15.53;;;7.07;;
13439;SDS011;6792;57.698;11.946;2023-02-23T12:22:31;13.23;;;6.67;;
13439;SDS011;6792;57.698;11.946;2023-02-23T12:25:02;13.80;;;6.13;;
13439;SDS011;6792;57.698;11.946;2023-02-23T12:27:35;14.63;;;6.70;;
13439;SDS011;6792;57.698;11.946;2023-02-23T12:30:10;13.43;;;6.70;;
13439;SDS011;6792;57.698;11.946;2023-02-23T12:32:45;10.87;;;6.43;;
13439;SDS011;6792;57.698;11.946;2023-02-23T12:35:19;8.90;;;5.60;;
13439;SDS011;6792;57.698;11.946;2023-02-23T12:37:53;11.83;;;6.13;;
13439;SDS011;6792;57.698;11.946;2023-02-23T12:40:25;12.83;;;6.67;;
13439;SDS011;6792;57.698;11.946;2023-02-23T12:42:59;13.60;;;6.40;;
13439;SDS011;6792;57.698;11.946;2023-02-23T12:45:33;12.00;;;6.10;;
13439;SDS011;6792;57.698;11.946;2023-02-23T12:48:07;17.33;;;7.00;;
13439;SDS011;6792;57.698;11.946;2023-02-23T12:50:42;13.63;;;6.37;;
13439;SDS011;6792;57.698;11.946;2023-02-23T12:53:17;18.20;;;7.70;;
13439;SDS011;6792;57.698;11.946;2023-02-23T12:55:53;18.13;;;8.57;;
13439;SDS011;6792;57.698;11.946;2023-02-23T12:58:41;19.33;;;8.70;;
13439;SDS011;6792;57.698;11.946;2023-02-23T13:01:13;17.63;;;8.87;;
13439;SDS011;6792;57.698;11.946;2023-02-23T13:03:53;15.13;;;7.23;;
13439;SDS011;6792;57.698;11.946;2023-02-23T13:06:33;26.70;;;10.10;;
13439;SDS011;6792;57.698;11.946;2023-02-23T13:09:09;25.70;;;10.57;;
13439;SDS011;6792;57.698;11.946;2023-02-23T13:11:47;23.43;;;10.77;;
13439;SDS011;6792;57.698;11.946;2023-02-23T13:14:26;28.23;;;11.70;;
13439;SDS011;6792;57.698;11.946;2023-02-23T13:16:59;25.17;;;11.73;;
13439;SDS011;6792;57.698;11.946;2023-02-23T13:19:32;31.53;;;12.37;;
13439;SDS011;6792;57.698;11.946;2023-02-23T13:22:06;21.13;;;10.60;;
13439;SDS011;6792;57.698;11.946;2023-02-23T13:24:40;31.20;;;12.37;;
13439;SDS011;6792;57.698;11.946;2023-02-23T13:27:13;28.23;;;12.17;;
13439;SDS011;6792;57.698;11.946;2023-02-23T13:29:44;29.67;;;12.13;;
13439;SDS011;6792;57.698;11.946;2023-02-23T13:32:15;35.20;;;12.40;;
13439;SDS011;6792;57.698;11.946;2023-02-23T13:34:48;28.40;;;12.63;;
13439;SDS011;6792;57.698;11.946;2023-02-23T13:37:22;38.27;;;13.73;;
13439;SDS011;6792;57.698;11.946;2023-02-23T13:39:55;31.53;;;12.67;;
13439;SDS011;6792;57.698;11.946;2023-02-23T13:45:25;41.20;;;14.03;;
13439;SDS011;6792;57.698;11.946;2023-02-23T13:48:18;31.40;;;12.77;;
13439;SDS011;6792;57.698;11.946;2023-02-23T13:50:55;36.97;;;13.97;;
13439;SDS011;6792;57.698;11.946;2023-02-23T13:53:31;35.57;;;14.00;;
13439;SDS011;6792;57.698;11.946;2023-02-23T13:56:07;40.10;;;14.40;;
13439;SDS011;6792;57.698;11.946;2023-02-23T13:58:39;34.13;;;14.27;;
13439;SDS011;6792;57.698;11.946;2023-02-23T14:01:14;32.13;;;13.23;;
13439;SDS011;6792;57.698;11.946;2023-02-23T14:03:46;35.53;;;13.77;;
13439;SDS011;6792;57.698;11.946;2023-02-23T14:06:22;31.17;;;13.07;;
13439;SDS011;6792;57.698;11.946;2023-02-23T14:08:54;31.77;;;13.37;;
13439;SDS011;6792;57.698;11.946;2023-02-23T14:11:39;25.33;;;11.97;;
13439;SDS011;6792;57.698;11.946;2023-02-23T14:14:11;33.80;;;14.27;;
13439;SDS011;6792;57.698;11.946;2023-02-23T14:16:42;31.07;;;13.20;;
13439;SDS011;6792;57.698;11.946;2023-02-23T14:19:31;31.67;;;11.63;;
13439;SDS011;6792;57.698;11.946;2023-02-23T14:22:03;32.33;;;12.57;;
13439;SDS011;6792;57.698;11.946;2023-02-23T14:24:36;28.77;;;11.70;;
13439;SDS011;6792;57.698;11.946;2023-02-23T14:30:22;22.73;;;10.33;;
13439;SDS011;6792;57.698;11.946;2023-02-23T14:32:51;24.10;;;11.00;;
13439;SDS011;6792;57.698;11.946;2023-02-23T14:35:37;27.47;;;10.87;;
13439;SDS011;6792;57.698;11.946;2023-02-23T14:38:14;26.43;;;10.27;;
13439;SDS011;6792;57.698;11.946;2023-02-23T14:40:51;26.83;;;9.53;;
13439;SDS011;6792;57.698;11.946;2023-02-23T14:43:41;22.43;;;9.67;;
13439;SDS011;6792;57.698;11.946;2023-02-23T14:46:16;21.23;;;8.87;;
13439;SDS011;6792;57.698;11.946;2023-02-23T14:48:59;21.03;;;8.17;;
13439;SDS011;6792;57.698;11.946;2023-02-23T14:51:35;22.80;;;8.87;;
13439;SDS011;6792;57.698;11.946;2023-02-23T14:54:11;24.17;;;9.77;;
13439;SDS011;6792;57.698;11.946;2023-02-23T14:56:50;24.13;;;8.90;;
13439;SDS011;6792;57.698;11.946;2023-02-23T14:59:22;18.50;;;7.90;;
13439;SDS011;6792;57.698;11.946;2023-02-23T15:01:54;21.93;;;8.90;;
13439;SDS011;6792;57.698;11.946;2023-02-23T15:04:27;23.73;;;8.67;;
13439;SDS011;6792;57.698;11.946;2023-02-23T15:06:57;18.40;;;7.73;;
13439;SDS011;6792;57.698;11.946;2023-02-23T15:09:32;23.47;;;8.50;;
13439;SDS011;6792;57.698;11.946;2023-02-23T15:12:23;19.97;;;7.87;;
13439;SDS011;6792;57.698;11.946;2023-02-23T15:14:55;21.03;;;8.47;;
13439;SDS011;6792;57.698;11.946;2023-02-23T15:17:26;23.23;;;9.10;;
13439;SDS011;6792;57.698;11.946;2023-02-23T15:19:59;24.90;;;9.10;;
13439;SDS011;6792;57.698;11.946;2023-02-23T15:22:32;24.27;;;9.10;;
13439;SDS011;6792;57.698;11.946;2023-02-23T15:25:05;27.40;;;8.70;;
13439;SDS011;6792;57.698;11.946;2023-02-23T15:27:36;20.60;;;8.00;;
13439;SDS011;6792;57.698;11.946;2023-02-23T15:30:19;17.27;;;6.67;;
13439;SDS011;6792;57.698;11.946;2023-02-23T15:32:58;13.73;;;5.13;;
13439;SDS011;6792;57.698;11.946;2023-02-23T15:35:33;12.87;;;5.30;;